Saturday, July 21, 2018, 9:02 PM EDT
Back to Local

KBHB, Bar Harbor, Hancock County-bar Harbor Airport

Location: Ellsworth, ME, United States Lat: 44.45
Local Time: 9:02 PM EDT ( 1:02 GMT) Lon: -68.367
Time Zone: US/Eastern Elev: 82 ft

Show me the last for .
Show Decoded

2018-07-21 19:56 METAR KBHB 212356Z AUTO 21005KT 10SM CLR 19/12 A3016 RMK AO2 SLP218 T01890117
                 10261 20189 402610117 50005 $ =
2018-07-21 18:56 METAR KBHB 212256Z AUTO 21006KT 10SM CLR 22/11 A3016 RMK AO2 SLP218 T02170111 $
                 =
2018-07-21 17:56 METAR KBHB 212156Z AUTO 21009KT 10SM CLR 23/13 A3016 RMK AO2 SLP215 T02280128 $
                 =
2018-07-21 16:56 METAR KBHB 212056Z AUTO 21007KT 10SM CLR 24/13 A3015 RMK AO2 SLP213 T02390133
                 55002 $ =
2018-07-21 16:19 METAR KBHB 212019Z AUTO 21007KT 10SM FEW002 24/13 A3014 RMK AO2 $ =
2018-07-21 15:56 METAR KBHB 211956Z AUTO 20010KT 10SM CLR 25/14 A3015 RMK AO2 SLP212 T02500139 $
                 =
2018-07-21 14:56 METAR KBHB 211856Z AUTO 17005KT 10SM CLR 26/13 A3015 RMK AO2 SLP213 T02560133 $
                 =
2018-07-21 13:56 METAR KBHB 211756Z AUTO 11005KT 10SM CLR 26/13 A3016 RMK AO2 SLP215 T02560133
                 10256 20167 58012 $ =
2018-07-21 12:56 METAR KBHB 211656Z AUTO 12004KT 10SM CLR 25/13 A3017 RMK AO2 SLP220 T02500128 $
                 =
2018-07-21 11:56 METAR KBHB 211556Z AUTO 12005KT 9SM CLR 24/12 A3019 RMK AO2 SLP227 T02390122 $ =
2018-07-21 10:56 METAR KBHB 211456Z AUTO 14005KT 10SM CLR 22/14 A3019 RMK AO2 SLP227 T02220139
                 55004 $ =
2018-07-21 09:56 METAR KBHB 211356Z AUTO 05004KT 10SM CLR 22/14 A3019 RMK AO2 SLP227 T02220139 $
                 =
2018-07-21 08:56 METAR KBHB 211256Z AUTO 00000KT 10SM CLR 20/15 A3020 RMK AO2 SLP230 T02000150 $
                 =
2018-07-21 06:56 METAR KBHB 211056Z AUTO 00000KT 9SM FEW002 14/14 A3021 RMK AO2 SLP233 T01440139
                 $ =
2018-07-21 06:36 METAR KBHB 211036Z AUTO 00000KT 8SM BKN002 13/13 A3020 RMK AO2 $ =
2018-07-21 06:09 METAR KBHB 211009Z AUTO 00000KT 2SM BR OVC002 13/13 A3020 RMK AO2 $ =
2018-07-21 06:06 METAR KBHB 211006Z AUTO 00000KT 3/4SM BR OVC002 13/13 A3020 RMK AO2 RVRNO $ =
2018-07-21 05:56 METAR KBHB 210956Z AUTO 00000KT 1/4SM FG OVC002 13/13 A3020 RMK AO2 RAB06E24
                 SLP230 P0000 T01280128 RVRNO $ =
2018-07-21 04:56 METAR KBHB 210856Z AUTO 00000KT 1/4SM FG OVC002 12/12 A3020 RMK AO2 RAB13E31
                 SLP230 P0000 60000 T01220122 53000 RVRNO $ =
2018-07-21 04:46 METAR KBHB 210846Z AUTO 00000KT 1/4SM FG OVC002 12/12 A3020 RMK AO2 RAB13E31
                 P0000 RVRNO $ =
2018-07-21 04:43 METAR KBHB 210843Z AUTO 00000KT 3/4SM BR OVC002 12/12 A3020 RMK AO2 RAB13E31
                 P0000 RVRNO $ =
2018-07-21 04:39 METAR KBHB 210839Z AUTO 00000KT 1 1/2SM BR OVC002 12/12 A3020 RMK AO2 RAB13E31
                 P0000 $ =
2018-07-21 04:36 METAR KBHB 210836Z AUTO 00000KT 3SM BR OVC002 12/12 A3020 RMK AO2 RAB13E31 P0000
                 $ =
2018-07-21 04:32 METAR KBHB 210832Z AUTO 00000KT 1 1/4SM BR OVC002 13/12 A3020 RMK AO2 RAB13E31
                 P0000 $ =
2018-07-21 04:30 METAR KBHB 210830Z AUTO 00000KT 3/4SM -RA BR OVC002 13/12 A3020 RMK AO2 RAB13
                 P0000 RVRNO $ =
2018-07-21 04:23 METAR KBHB 210823Z AUTO 00000KT 1/4SM -RA FG OVC002 12/12 A3020 RMK AO2 RAB13
                 P0000 RVRNO $ =
2018-07-21 04:06 METAR KBHB 210806Z AUTO 35003KT 1/4SM FG OVC004 12/12 A3019 RMK AO2 RVRNO $ =
2018-07-21 03:56 METAR KBHB 210756Z AUTO 34003KT 3/4SM BR OVC004 12/12 A3019 RMK AO2 SLP226
                 T01220122 RVRNO $ =
2018-07-21 03:41 METAR KBHB 210741Z AUTO 00000KT 1 1/2SM BR OVC004 12/11 A3019 RMK AO2 $ =
2018-07-21 03:23 METAR KBHB 210723Z AUTO 00000KT 3SM BR OVC004 12/11 A3020 RMK AO2 $ =
2018-07-21 03:15 METAR KBHB 210715Z AUTO 00000KT 1 1/2SM BR BKN004 12/11 A3020 RMK AO2 VIS 1/2V5
                 CIG 001V006 $ =
2018-07-21 03:13 METAR KBHB 210713Z AUTO 00000KT 3/4SM BR BKN004 12/11 A3020 RMK AO2 VIS 1/4V5
                 CIG 001V006 RVRNO $ =
2018-07-21 03:05 METAR KBHB 210705Z AUTO 00000KT 1 1/4SM BR BKN004 12/12 A3020 RMK AO2 VIS 1/4V5
                 $ =
2018-07-21 02:56 METAR KBHB 210656Z AUTO 00000KT 5SM BR BKN004 12/12 A3020 RMK AO2 SLP230
                 T01170117 $ =
2018-07-21 02:22 METAR KBHB 210622Z AUTO 00000KT 4SM BR BKN004 12/12 A3020 RMK AO2 $ =
2018-07-21 01:56 METAR KBHB 210556Z AUTO 00000KT 10SM CLR 13/12 A3020 RMK AO2 SLP229 T01280122
                 10194 20128 58001 $ =
2018-07-21 00:56 METAR KBHB 210456Z AUTO 00000KT 10SM CLR 13/13 A3020 RMK AO2 SLP230 T01330128 $
                 =
2018-07-20 23:56 METAR KBHB 210356Z AUTO 00000KT 10SM CLR 14/14 A3020 RMK AO2 SLP229 T01440144 $
                 =
2018-07-20 22:56 METAR KBHB 210256Z AUTO 00000KT 10SM CLR 17/16 A3020 RMK AO2 SLP229 T01670156
                 51004 $ =
2018-07-20 21:56 METAR KBHB 210156Z AUTO 00000KT 10SM CLR 17/16 A3020 RMK AO2 SLP228 T01720156 $
                 =

Support USWX by starting your Amazon purchase here.